Time,TemperatureF,DewpointF,PressureIn,WindDirection,WindDirectionDegrees,WindSpeedMPH,WindSpeedGustMPH,Humidity,HourlyPrecipIn,Conditions,Clouds,dailyrainin,SoftwareType,DateUTC
2013-04-16 00:07:00,22.1,18.0,30.34,ESE,108,4.0,7.0,85,0.00,,,0.00,weatherlink.com 1.10,2013-04-16 06:07:00,
2013-04-16 00:36:00,21.9,18.0,30.33,ESE,111,3.0,5.0,86,0.00,,,0.00,weatherlink.com 1.10,2013-04-16 06:36:00,
2013-04-16 00:51:00,21.9,19.0,30.33,ESE,108,1.0,3.0,87,0.00,,,0.00,weatherlink.com 1.10,2013-04-16 06:51:00,
2013-04-16 01:06:00,21.9,19.0,30.33,ESE,113,1.0,4.0,87,0.00,,,0.00,weatherlink.com 1.10,2013-04-16 07:06:00,
2013-04-16 01:36:00,21.6,18.0,30.35,NE,45,3.0,4.0,87,0.00,,,0.00,weatherlink.com 1.10,2013-04-16 07:36:00,
2013-04-16 01:51:00,21.3,18.0,30.36,East,90,3.0,6.0,87,0.00,,,0.00,weatherlink.com 1.10,2013-04-16 07:51:00,
2013-04-16 02:06:00,20.5,17.0,30.35,NE,54,2.0,6.0,86,0.00,,,0.00,weatherlink.com 1.10,2013-04-16 08:06:00,
2013-04-16 02:21:00,20.0,17.0,30.36,NE,44,4.0,5.0,87,0.00,,,0.00,weatherlink.com 1.10,2013-04-16 08:21:00,
2013-04-16 02:36:00,19.9,16.0,30.35,NE,45,2.0,5.0,86,0.00,,,0.00,weatherlink.com 1.10,2013-04-16 08:36:00,
2013-04-16 02:51:00,19.7,16.0,30.34,NE,45,0.0,4.0,86,0.00,,,0.00,weatherlink.com 1.10,2013-04-16 08:51:00,
2013-04-16 03:06:00,19.7,16.0,30.34,NE,45,0.0,3.0,86,0.00,,,0.00,weatherlink.com 1.10,2013-04-16 09:06:00,
2013-04-16 03:21:00,19.7,16.0,30.34,NE,45,1.0,2.0,86,0.00,,,0.00,weatherlink.com 1.10,2013-04-16 09:21:00,
2013-04-16 03:51:00,19.4,16.0,30.34,NE,45,0.0,1.0,86,0.00,,,0.00,weatherlink.com 1.10,2013-04-16 09:51:00,
2013-04-16 04:06:00,19.5,16.0,30.35,NE,45,0.0,0.0,86,0.00,,,0.00,weatherlink.com 1.10,2013-04-16 10:06:00,
2013-04-16 04:21:00,19.4,16.0,30.34,NE,37,3.0,5.0,86,0.00,,,0.00,weatherlink.com 1.10,2013-04-16 10:21:00,
2013-04-16 04:36:00,19.2,16.0,30.34,SE,135,0.0,6.0,86,0.00,,,0.00,weatherlink.com 1.10,2013-04-16 10:36:00,
2013-04-16 04:51:00,19.1,16.0,30.35,SSE,168,3.0,4.0,86,0.00,,,0.00,weatherlink.com 1.10,2013-04-16 10:51:00,
2013-04-16 05:06:00,18.9,15.0,30.34,SSE,168,2.0,3.0,85,0.00,,,0.00,weatherlink.com 1.10,2013-04-16 11:06:00,
2013-04-16 05:21:00,18.9,15.0,30.34,SSE,168,2.0,3.0,85,0.00,,,0.00,weatherlink.com 1.10,2013-04-16 11:21:00,
2013-04-16 05:36:00,18.9,15.0,30.33,SSE,168,2.0,3.0,86,0.00,,,0.00,weatherlink.com 1.10,2013-04-16 11:36:00,
2013-04-16 05:51:00,18.8,15.0,30.34,East,85,0.0,3.0,86,0.00,,,0.00,weatherlink.com 1.10,2013-04-16 11:51:00,
2013-04-16 06:06:00,18.6,15.0,30.34,East,84,0.0,3.0,86,0.00,,,0.00,weatherlink.com 1.10,2013-04-16 12:06:00,
2013-04-16 06:21:00,18.6,15.0,30.34,East,84,0.0,2.0,86,0.00,,,0.00,weatherlink.com 1.10,2013-04-16 12:21:00,
2013-04-16 06:36:00,18.4,15.0,30.36,East,84,1.0,3.0,86,0.00,,,0.00,weatherlink.com 1.10,2013-04-16 12:36:00,
2013-04-16 06:51:00,18.4,15.0,30.35,East,83,1.0,2.0,86,0.00,,,0.00,weatherlink.com 1.10,2013-04-16 12:51:00,
2013-04-16 07:06:00,18.4,15.0,30.34,ENE,78,2.0,4.0,86,0.00,,,0.00,weatherlink.com 1.10,2013-04-16 13:06:00,
2013-04-16 07:21:00,18.6,15.0,30.35,ENE,77,2.0,4.0,86,0.00,,,0.00,weatherlink.com 1.10,2013-04-16 13:21:00,
2013-04-16 07:36:00,18.6,15.0,30.36,East,79,2.0,5.0,86,0.00,,,0.00,weatherlink.com 1.10,2013-04-16 13:36:00,
2013-04-16 07:51:00,18.8,15.0,30.37,ENE,75,3.0,5.0,86,0.00,,,0.00,weatherlink.com 1.10,2013-04-16 13:51:00,
2013-04-16 08:06:00,18.8,15.0,30.38,ENE,62,3.0,7.0,85,0.00,,,0.00,weatherlink.com 1.10,2013-04-16 14:06:00,
2013-04-16 08:21:00,18.8,15.0,30.38,NE,45,2.0,6.0,85,0.00,,,0.00,weatherlink.com 1.10,2013-04-16 14:21:00,
2013-04-16 08:36:00,18.9,15.0,30.38,East,83,2.0,6.0,85,0.00,,,0.00,weatherlink.com 1.10,2013-04-16 14:36:00,
2013-04-16 08:52:00,18.8,15.0,30.38,NE,42,4.0,11.0,85,0.00,,,0.00,weatherlink.com 1.10,2013-04-16 14:52:00,
2013-04-16 09:07:00,18.8,15.0,30.38,ENE,75,5.0,14.0,85,0.00,,,0.00,weatherlink.com 1.10,2013-04-16 15:07:00,
2013-04-16 09:22:00,18.9,15.0,30.38,NE,51,10.0,12.0,84,0.00,,,0.00,weatherlink.com 1.10,2013-04-16 15:22:00,
2013-04-16 09:37:00,19.1,15.0,30.37,East,80,3.0,13.0,85,0.00,,,0.00,weatherlink.com 1.10,2013-04-16 15:37:00,
2013-04-16 09:52:00,19.5,15.0,30.38,ENE,61,9.0,12.0,84,0.00,,,0.00,weatherlink.com 1.10,2013-04-16 15:52:00,
2013-04-16 10:07:00,19.4,15.0,30.37,East,87,9.0,13.0,84,0.00,,,0.00,weatherlink.com 1.10,2013-04-16 16:07:00,
2013-04-16 10:22:00,19.4,15.0,30.37,East,85,7.0,11.0,84,0.00,,,0.00,weatherlink.com 1.10,2013-04-16 16:22:00,
2013-04-16 10:37:00,20.0,16.0,30.38,East,100,8.0,12.0,84,0.00,,,0.00,weatherlink.com 1.10,2013-04-16 16:37:00,
2013-04-16 10:52:00,20.3,16.0,30.38,ENE,66,7.0,12.0,83,0.00,,,0.00,weatherlink.com 1.10,2013-04-16 16:52:00,
2013-04-16 11:07:00,20.3,16.0,30.39,East,86,6.0,13.0,84,0.00,,,0.00,weatherlink.com 1.10,2013-04-16 17:07:00,
2013-04-16 11:22:00,20.8,16.0,30.39,ENE,70,7.0,10.0,83,0.00,,,0.00,weatherlink.com 1.10,2013-04-16 17:22:00,
2013-04-16 11:37:00,21.0,17.0,30.39,ENE,68,3.0,8.0,83,0.00,,,0.00,weatherlink.com 1.10,2013-04-16 17:37:00,
2013-04-16 11:52:00,21.1,17.0,30.39,East,82,7.0,9.0,83,0.00,,,0.00,weatherlink.com 1.10,2013-04-16 17:52:00,
2013-04-16 12:07:00,20.5,16.0,30.38,NE,53,7.0,14.0,82,0.00,,,0.00,weatherlink.com 1.10,2013-04-16 18:07:00,
2013-04-16 12:22:00,21.0,17.0,30.37,NE,45,6.0,9.0,83,0.01,,,0.01,weatherlink.com 1.10,2013-04-16 18:22:00,
2013-04-16 12:37:00,21.1,16.0,30.38,NNE,33,6.0,10.0,81,0.01,,,0.01,weatherlink.com 1.10,2013-04-16 18:37:00,
2013-04-16 12:52:00,21.9,17.0,30.38,NE,40,5.0,9.0,81,0.02,,,0.02,weatherlink.com 1.10,2013-04-16 18:52:00,
2013-04-16 13:07:00,22.7,17.0,30.38,NE,50,5.0,7.0,78,0.03,,,0.03,weatherlink.com 1.10,2013-04-16 19:07:00,
2013-04-16 13:22:00,22.7,17.0,30.38,NE,48,5.0,9.0,79,0.03,,,0.04,weatherlink.com 1.10,2013-04-16 19:22:00,
2013-04-16 13:37:00,22.1,17.0,30.38,North,8,4.0,6.0,80,0.05,,,0.06,weatherlink.com 1.10,2013-04-16 19:37:00,
2013-04-16 13:52:00,23.6,18.0,30.39,ENE,77,8.0,8.0,78,0.05,,,0.07,weatherlink.com 1.10,2013-04-16 19:52:00,
2013-04-16 14:07:00,22.9,17.0,30.39,NE,42,3.0,7.0,79,0.05,,,0.08,weatherlink.com 1.10,2013-04-16 20:07:00,
2013-04-16 14:22:00,23.9,18.0,30.39,NW,325,6.0,7.0,79,0.06,,,0.10,weatherlink.com 1.10,2013-04-16 20:22:00,
2013-04-16 14:37:00,23.9,19.0,30.41,NNW,343,0.0,5.0,80,0.04,,,0.10,weatherlink.com 1.10,2013-04-16 20:37:00,
2013-04-16 14:52:00,24.5,18.0,30.40,NNW,342,2.0,6.0,76,0.05,,,0.12,weatherlink.com 1.10,2013-04-16 20:52:00,
2013-04-16 15:07:00,23.5,18.0,30.41,ENE,58,4.0,8.0,79,0.05,,,0.13,weatherlink.com 1.10,2013-04-16 21:07:00,
2013-04-16 15:37:00,22.5,18.0,30.41,NNW,328,1.0,5.0,82,0.04,,,0.14,weatherlink.com 1.10,2013-04-16 21:37:00,
2013-04-16 15:52:00,23.5,18.0,30.41,West,278,2.0,5.0,80,0.02,,,0.14,weatherlink.com 1.10,2013-04-16 21:52:00,
2013-04-16 16:07:00,24.2,19.0,30.42,NW,307,2.0,6.0,81,0.02,,,0.15,weatherlink.com 1.10,2013-04-16 22:07:00,
2013-04-16 16:22:00,23.6,19.0,30.43,WNW,293,0.0,5.0,82,0.02,,,0.15,weatherlink.com 1.10,2013-04-16 22:22:00,
2013-04-16 16:37:00,23.2,19.0,30.43,WNW,293,3.0,4.0,82,0.02,,,0.16,weatherlink.com 1.10,2013-04-16 22:37:00,
2013-04-16 16:52:00,22.5,18.0,30.44,WNW,293,2.0,5.0,84,0.02,,,0.16,weatherlink.com 1.10,2013-04-16 22:52:00,
2013-04-16 17:07:00,23.0,19.0,30.44,West,265,3.0,6.0,83,0.02,,,0.17,weatherlink.com 1.10,2013-04-16 23:07:00,
2013-04-16 17:22:00,25.0,20.0,30.43,West,265,1.0,3.0,81,0.02,,,0.17,weatherlink.com 1.10,2013-04-16 23:22:00,
2013-04-16 17:37:00,25.4,20.0,30.44,West,265,2.0,3.0,79,0.02,,,0.18,weatherlink.com 1.10,2013-04-16 23:37:00,
2013-04-16 17:52:00,23.2,19.0,30.45,West,269,1.0,4.0,82,0.02,,,0.18,weatherlink.com 1.10,2013-04-16 23:52:00,
2013-04-16 18:07:00,23.2,19.0,30.46,West,269,2.0,3.0,83,0.01,,,0.18,weatherlink.com 1.10,2013-04-17 00:07:00,
2013-04-16 18:22:00,23.2,19.0,30.46,West,268,1.0,3.0,82,0.00,,,0.18,weatherlink.com 1.10,2013-04-17 00:22:00,
2013-04-16 18:37:00,22.1,17.0,30.47,ESE,107,4.0,9.0,82,0.00,,,0.18,weatherlink.com 1.10,2013-04-17 00:37:00,
2013-04-16 18:52:00,21.8,18.0,30.48,ESE,122,7.0,9.0,85,0.00,,,0.18,weatherlink.com 1.10,2013-04-17 00:52:00,
2013-04-16 19:07:00,21.3,17.0,30.47,ESE,110,0.0,2.0,84,0.00,,,0.18,weatherlink.com 1.10,2013-04-17 01:07:00,
2013-04-16 19:22:00,20.8,16.0,30.47,ESE,111,2.0,3.0,82,0.00,,,0.18,weatherlink.com 1.10,2013-04-17 01:22:00,
2013-04-16 19:37:00,20.6,16.0,30.48,WSW,239,0.0,5.0,82,0.00,,,0.18,weatherlink.com 1.10,2013-04-17 01:37:00,
2013-04-16 19:52:00,20.8,15.0,30.48,WSW,239,3.0,5.0,79,0.00,,,0.18,weatherlink.com 1.10,2013-04-17 01:52:00,
2013-04-16 20:07:00,20.8,16.0,30.48,WSW,239,2.0,3.0,81,0.00,,,0.18,weatherlink.com 1.10,2013-04-17 02:07:00,
2013-04-16 20:22:00,20.6,17.0,30.50,WSW,239,0.0,2.0,84,0.00,,,0.18,weatherlink.com 1.10,2013-04-17 02:22:00,
2013-04-16 20:37:00,20.5,17.0,30.51,WSW,239,0.0,2.0,85,0.00,,,0.18,weatherlink.com 1.10,2013-04-17 02:37:00,
2013-04-16 20:52:00,20.2,16.0,30.52,WSW,239,0.0,0.0,85,0.00,,,0.18,weatherlink.com 1.10,2013-04-17 02:52:00,
2013-04-16 21:07:00,20.2,17.0,30.53,WSW,239,0.0,1.0,86,0.00,,,0.18,weatherlink.com 1.10,2013-04-17 03:07:00,
2013-04-16 21:22:00,20.3,17.0,30.53,WSW,239,0.0,1.0,86,0.00,,,0.18,weatherlink.com 1.10,2013-04-17 03:22:00,
2013-04-16 21:37:00,20.2,17.0,30.54,NW,325,3.0,3.0,86,0.00,,,0.18,weatherlink.com 1.10,2013-04-17 03:37:00,
2013-04-16 21:53:00,20.2,16.0,30.54,North,354,2.0,4.0,84,0.00,,,0.18,weatherlink.com 1.10,2013-04-17 03:53:00,
2013-04-16 22:08:00,20.0,16.0,30.54,North,354,2.0,3.0,84,0.00,,,0.18,weatherlink.com 1.10,2013-04-17 04:08:00,
2013-04-16 22:23:00,20.0,17.0,30.55,ENE,77,3.0,8.0,86,0.00,,,0.18,weatherlink.com 1.10,2013-04-17 04:23:00,
2013-04-16 22:38:00,19.9,16.0,30.55,East,83,0.0,6.0,86,0.00,,,0.18,weatherlink.com 1.10,2013-04-17 04:38:00,
2013-04-16 22:53:00,19.5,16.0,30.55,East,83,0.0,2.0,86,0.00,,,0.18,weatherlink.com 1.10,2013-04-17 04:53:00,
2013-04-16 23:08:00,19.4,16.0,30.56,East,83,0.0,0.0,85,0.00,,,0.18,weatherlink.com 1.10,2013-04-17 05:08:00,
2013-04-16 23:23:00,19.2,15.0,30.56,East,83,0.0,1.0,85,0.00,,,0.18,weatherlink.com 1.10,2013-04-17 05:23:00,
2013-04-16 23:38:00,19.4,16.0,30.55,East,83,0.0,0.0,85,0.00,,,0.18,weatherlink.com 1.10,2013-04-17 05:38:00,
2013-04-16 23:53:00,19.4,16.0,30.56,East,83,0.0,0.0,85,0.00,,,0.18,weatherlink.com 1.10,2013-04-17 05:53:00,